Time;durP1;ratioP1;P1;durP2;ratioP2;P2;SDS_P1;SDS_P2;PMS_P1;PMS_P2;Temp;Humidity;BMP_temperature;BMP_pressure;BME280_temperature;BME280_humidity;BME280_pressure;Samples;Min_cycle;Max_cycle;Signal;HPM_P1;HPM_P2
2021/01/15 00:05:28;;;;;;;0.85;0.55;;;8.40;62.00;;;;;;20748176;28;20037;-71
2021/01/15 00:15:29;;;;;;;0.50;0.50;;;8.40;62.10;;;;;;20747333;28;20487;-73
2021/01/15 00:25:29;;;;;;;2.47;0.80;;;8.30;62.00;;;;;;20745227;28;20053;-72
2021/01/15 00:35:30;;;;;;;1.23;0.82;;;8.30;62.00;;;;;;20744034;28;20121;-72
2021/01/15 00:45:31;;;;;;;1.95;1.00;;;8.40;62.10;;;;;;20784465;28;20030;-73
2021/01/15 00:55:33;;;;;;;1.05;0.75;;;8.30;62.20;;;;;;20771667;28;20488;-71
2021/01/15 01:05:34;;;;;;;0.75;0.45;;;8.30;62.20;;;;;;20772974;28;20034;-71
2021/01/15 01:15:35;;;;;;;2.63;0.57;;;8.30;62.20;;;;;;20766890;28;20472;-72
2021/01/15 01:25:35;;;;;;;0.87;0.77;;;8.40;62.30;;;;;;20780558;28;20087;-73
2021/01/15 01:35:36;;;;;;;0.47;0.28;;;8.40;62.30;;;;;;20775459;28;20334;-71
2021/01/15 01:45:38;;;;;;;1.15;0.50;;;8.30;62.20;;;;;;20759974;28;20061;-71
2021/01/15 01:55:38;;;;;;;3.08;0.60;;;8.30;62.20;;;;;;20784021;28;20113;-71
2021/01/15 02:05:39;;;;;;;2.42;1.17;;;8.30;62.30;;;;;;20755994;28;20076;-71
2021/01/15 02:16:12;;;;;;;1.33;0.52;;;8.30;62.20;;;;;;20772108;28;20037;-72
2021/01/15 02:26:23;;;;;;;1.33;0.68;;;8.30;62.20;;;;;;20734215;28;20060;-72
2021/01/15 02:36:53;;;;;;;0.80;0.50;;;8.30;62.20;;;;;;20773418;28;20494;-71
2021/01/15 02:46:56;;;;;;;1.73;0.63;;;8.30;62.20;;;;;;20775314;28;20060;-71
2021/01/15 02:56:56;;;;;;;3.90;0.73;;;8.30;62.20;;;;;;20757159;28;20381;-71
2021/01/15 03:07:02;;;;;;;0.38;0.38;;;8.40;62.30;;;;;;20749450;28;20034;-71
2021/01/15 03:17:11;;;;;;;0.77;0.50;;;8.30;62.10;;;;;;20752660;28;20128;-72
2021/01/15 03:27:14;;;;;;;1.63;0.75;;;8.30;62.10;;;;;;20766454;28;20045;-70
2021/01/15 03:37:15;;;;;;;0.82;0.65;;;8.30;62.20;;;;;;20778728;28;20119;-71
2021/01/15 03:47:15;;;;;;;1.58;0.40;;;8.30;62.20;;;;;;20773912;28;20049;-71
2021/01/15 03:57:16;;;;;;;0.35;0.35;;;8.30;62.10;;;;;;20790934;28;20042;-72
2021/01/15 04:07:18;;;;;;;1.33;0.70;;;8.30;62.00;;;;;;20771959;28;20084;-72
2021/01/15 04:17:18;;;;;;;0.82;0.50;;;8.30;62.10;;;;;;20784185;28;20057;-71
2021/01/15 04:27:27;;;;;;;2.13;0.85;;;8.30;62.00;;;;;;20801753;28;20029;-72
2021/01/15 04:37:28;;;;;;;2.30;1.00;;;8.30;62.00;;;;;;20779122;28;20060;-71
2021/01/15 04:47:31;;;;;;;6.60;0.95;;;8.30;62.00;;;;;;20779985;28;20053;-72
2021/01/15 04:57:32;;;;;;;0.90;0.60;;;8.30;62.00;;;;;;20784520;28;20041;-72
2021/01/15 05:07:35;;;;;;;1.00;0.60;;;8.30;62.00;;;;;;20773705;28;20058;-72
2021/01/15 05:17:36;;;;;;;0.45;0.43;;;8.30;62.20;;;;;;20759290;28;20037;-71
2021/01/15 05:27:39;;;;;;;1.08;0.50;;;8.40;62.30;;;;;;20755114;28;20096;-70
2021/01/15 05:37:41;;;;;;;1.70;0.93;;;8.60;62.10;;;;;;20779830;28;20041;-71
2021/01/15 05:47:42;;;;;;;1.42;0.80;;;8.80;61.40;;;;;;20756874;28;20034;-71
2021/01/15 05:57:43;;;;;;;1.63;0.70;;;9.00;60.90;;;;;;20773843;28;20480;-71
2021/01/15 06:07:44;;;;;;;1.35;0.40;;;9.00;60.10;;;;;;20757286;28;20753;-70
2021/01/15 06:17:52;;;;;;;2.35;0.57;;;8.90;59.70;;;;;;20746519;28;20112;-72
2021/01/15 06:27:56;;;;;;;1.52;0.90;;;8.80;59.70;;;;;;20766697;28;20272;-70
2021/01/15 06:38:05;;;;;;;1.15;0.52;;;8.70;59.80;;;;;;20761059;28;20083;-70
2021/01/15 06:48:17;;;;;;;1.65;0.60;;;8.60;60.00;;;;;;20758182;28;20030;-72
2021/01/15 06:58:20;;;;;;;0.88;0.57;;;8.50;60.30;;;;;;20772604;28;20482;-72
2021/01/15 07:08:20;;;;;;;0.38;0.38;;;8.50;60.50;;;;;;20776223;28;20453;-74
2021/01/15 07:18:32;;;;;;;1.15;0.88;;;8.50;60.70;;;;;;20768303;28;20077;-72
2021/01/15 07:28:32;;;;;;;1.58;0.65;;;8.40;60.70;;;;;;20769966;28;20052;-71
2021/01/15 07:38:33;;;;;;;1.20;0.47;;;8.40;60.90;;;;;;20763253;28;20500;-72
2021/01/15 07:48:34;;;;;;;1.13;0.60;;;8.40;60.90;;;;;;20779016;28;20033;-72
2021/01/15 07:58:37;;;;;;;1.83;0.88;;;8.40;60.90;;;;;;20769617;28;20140;-71
2021/01/15 08:08:57;;;;;;;5.18;1.10;;;8.40;60.90;;;;;;20793437;28;20041;-68
2021/01/15 08:18:58;;;;;;;1.75;0.98;;;8.40;60.90;;;;;;20785235;28;20827;-70
2021/01/15 08:28:59;;;;;;;2.33;0.80;;;8.40;60.90;;;;;;20748775;28;20130;-72
2021/01/15 08:38:59;;;;;;;3.40;1.30;;;8.30;60.80;;;;;;20755045;28;20068;-70
2021/01/15 08:49:05;;;;;;;1.77;0.90;;;8.40;60.90;;;;;;20760006;28;20124;-71
2021/01/15 08:59:07;;;;;;;1.85;0.80;;;8.30;61.00;;;;;;20755107;28;20483;-70
2021/01/15 09:09:11;;;;;;;2.20;1.08;;;8.40;60.90;;;;;;20777771;28;20116;-71
2021/01/15 09:19:14;;;;;;;0.80;0.50;;;8.30;60.80;;;;;;20794842;28;20045;-71
2021/01/15 09:29:16;;;;;;;2.50;0.88;;;8.30;60.70;;;;;;21207171;22;20051;-75
2021/01/15 09:39:18;;;;;;;2.38;1.10;;;8.30;60.70;;;;;;20783691;28;20472;-77
2021/01/15 09:49:20;;;;;;;2.85;0.65;;;8.30;60.60;;;;;;20775985;28;20077;-74
2021/01/15 09:59:21;;;;;;;0.90;0.73;;;8.30;60.60;;;;;;20776918;28;20045;-77
2021/01/15 10:09:23;;;;;;;2.70;0.88;;;8.30;60.50;;;;;;20757946;28;20029;-76
2021/01/15 10:19:25;;;;;;;2.07;0.60;;;8.30;60.50;;;;;;20740620;28;20067;-75
2021/01/15 10:29:27;;;;;;;2.38;0.68;;;8.30;60.40;;;;;;20783206;28;20276;-76
2021/01/15 10:39:29;;;;;;;1.83;1.25;;;8.30;60.30;;;;;;20766178;28;20120;-75
2021/01/15 10:49:34;;;;;;;2.13;0.60;;;8.30;60.30;;;;;;20736664;28;20583;-74
2021/01/15 10:59:37;;;;;;;1.60;1.13;;;8.30;60.20;;;;;;20755356;28;20045;-79
2021/01/15 11:09:38;;;;;;;0.47;0.22;;;8.30;60.10;;;;;;20748190;28;20451;-79
2021/01/15 11:19:38;;;;;;;2.23;1.10;;;8.30;60.10;;;;;;20758330;28;20159;-78
2021/01/15 11:29:40;;;;;;;3.92;1.13;;;8.30;60.00;;;;;;20787416;28;20288;-76
2021/01/15 11:39:41;;;;;;;2.42;0.95;;;8.30;60.00;;;;;;20777473;28;20034;-79
2021/01/15 11:49:43;;;;;;;2.72;0.68;;;8.20;59.80;;;;;;20784244;28;20435;-79
2021/01/15 11:59:45;;;;;;;0.57;0.57;;;8.30;59.80;;;;;;20740428;28;20046;-76
2021/01/15 12:09:46;;;;;;;1.38;0.88;;;8.20;59.80;;;;;;20775321;28;20038;-74
2021/01/15 12:19:46;;;;;;;1.25;0.73;;;8.30;59.80;;;;;;20758832;28;20026;-75
2021/01/15 12:29:50;;;;;;;1.48;0.47;;;8.30;59.80;;;;;;20755301;28;20069;-75
2021/01/15 12:39:50;;;;;;;0.88;0.65;;;8.30;59.80;;;;;;20751093;28;20487;-72
2021/01/15 12:49:52;;;;;;;0.93;0.93;;;8.20;59.80;;;;;;20777480;28;20033;-74
2021/01/15 12:59:52;;;;;;;1.02;0.60;;;8.20;59.70;;;;;;20760798;28;20303;-74
2021/01/15 13:09:53;;;;;;;2.70;0.32;;;8.20;59.70;;;;;;20752413;28;20036;-74
2021/01/15 13:19:55;;;;;;;1.00;0.70;;;8.20;59.70;;;;;;20739208;28;20123;-74
2021/01/15 13:29:55;;;;;;;1.42;0.88;;;8.20;59.70;;;;;;20775591;28;20283;-74
2021/01/15 13:39:56;;;;;;;2.55;1.13;;;8.20;59.60;;;;;;20781269;28;20045;-74
2021/01/15 13:50:01;;;;;;;1.27;1.08;;;8.20;59.60;;;;;;20767466;28;20042;-76
2021/01/15 14:00:02;;;;;;;1.15;0.80;;;8.20;59.60;;;;;;20772714;28;20034;-75
2021/01/15 14:10:12;;;;;;;1.50;0.73;;;8.20;59.60;;;;;;20788990;28;20033;-76
2021/01/15 14:20:14;;;;;;;2.00;0.82;;;8.20;59.60;;;;;;20757848;28;20548;-76
2021/01/15 14:30:16;;;;;;;1.48;1.00;;;8.20;59.70;;;;;;20755081;28;20069;-75
2021/01/15 14:40:17;;;;;;;1.05;0.47;;;8.20;59.70;;;;;;20765570;28;20049;-74
2021/01/15 14:50:19;;;;;;;3.58;1.30;;;8.20;59.80;;;;;;20774810;28;20399;-74
2021/01/15 15:00:19;;;;;;;0.52;0.50;;;8.20;59.80;;;;;;20741497;28;20065;-73
2021/01/15 15:10:21;;;;;;;1.58;0.63;;;8.10;59.90;;;;;;20776773;28;20092;-76
2021/01/15 15:20:22;;;;;;;2.17;0.82;;;8.20;60.10;;;;;;20744685;28;20037;-73
2021/01/15 15:30:23;;;;;;;1.13;0.82;;;8.30;60.30;;;;;;20761822;28;20048;-77
2021/01/15 15:40:23;;;;;;;0.75;0.55;;;8.60;59.90;;;;;;20753114;28;20069;-78
2021/01/15 15:50:25;;;;;;;1.15;0.55;;;8.80;59.20;;;;;;20782113;28;20454;-76
2021/01/15 16:00:27;;;;;;;0.77;0.50;;;8.90;58.60;;;;;;20793257;28;20037;-76
2021/01/15 16:10:28;;;;;;;1.15;0.68;;;8.90;57.90;;;;;;20797288;28;20095;-74
2021/01/15 16:20:29;;;;;;;0.80;0.35;;;9.00;57.50;;;;;;20760547;28;20037;-75
2021/01/15 16:30:29;;;;;;;0.45;0.45;;;8.90;57.20;;;;;;20767369;28;20565;-75
2021/01/15 16:40:30;;;;;;;0.87;0.60;;;8.70;57.30;;;;;;20733949;28;20499;-75
2021/01/15 16:50:30;;;;;;;3.53;0.50;;;8.60;57.50;;;;;;20762475;28;20370;-75
2021/01/15 17:00:32;;;;;;;1.55;0.93;;;8.50;57.90;;;;;;20752153;28;20407;-74
2021/01/15 17:10:34;;;;;;;1.60;1.08;;;8.40;58.10;;;;;;20759572;28;20038;-73
2021/01/15 17:20:34;;;;;;;1.38;0.77;;;8.40;58.40;;;;;;20759714;28;20117;-74
2021/01/15 17:30:35;;;;;;;1.23;0.63;;;8.30;58.80;;;;;;20763493;28;20489;-74
2021/01/15 17:40:36;;;;;;;1.33;0.83;;;8.30;59.00;;;;;;20764573;28;20025;-75
2021/01/15 17:50:37;;;;;;;1.40;0.88;;;8.30;58.80;;;;;;20765194;28;20350;-73
2021/01/15 18:00:38;;;;;;;1.63;0.70;;;8.30;58.90;;;;;;20772386;28;20086;-75
2021/01/15 18:10:40;;;;;;;1.98;1.35;;;8.20;58.90;;;;;;20799237;28;20057;-78
2021/01/15 18:20:40;;;;;;;1.02;0.70;;;8.20;58.80;;;;;;20748817;28;20029;-74
2021/01/15 18:30:41;;;;;;;0.77;0.63;;;8.20;58.70;;;;;;20749286;28;20511;-75
2021/01/15 18:40:41;;;;;;;1.92;0.63;;;8.20;58.50;;;;;;20741709;28;20060;-75
2021/01/15 18:50:44;;;;;;;1.67;0.93;;;8.20;58.40;;;;;;20751485;28;20156;-73
2021/01/15 19:00:45;;;;;;;3.88;0.95;;;8.20;58.40;;;;;;20748269;28;20057;-74
2021/01/15 19:10:45;;;;;;;0.87;0.57;;;8.20;58.40;;;;;;20736709;28;20624;-73
2021/01/15 19:20:52;;;;;;;0.50;0.32;;;8.20;59.00;;;;;;20764822;28;20288;-73
2021/01/15 19:30:53;;;;;;;0.30;0.30;;;8.20;58.30;;;;;;20755188;28;20096;-74
2021/01/15 19:40:55;;;;;;;0.73;0.52;;;8.20;58.30;;;;;;20762313;28;20037;-73
2021/01/15 19:50:56;;;;;;;1.27;0.32;;;8.10;58.10;;;;;;20758677;28;20032;-73
2021/01/15 20:00:58;;;;;;;3.20;0.75;;;8.20;58.10;;;;;;20755543;28;20030;-71
2021/01/15 20:10:59;;;;;;;1.42;0.68;;;8.10;58.00;;;;;;20754973;28;20033;-73
2021/01/15 20:20:59;;;;;;;1.30;0.65;;;8.10;57.80;;;;;;20753535;28;20044;-73
2021/01/15 20:31:00;;;;;;;0.95;0.52;;;8.10;57.80;;;;;;20753193;28;20128;-73
2021/01/15 20:41:01;;;;;;;0.57;0.50;;;8.10;57.70;;;;;;20763212;28;20434;-80
2021/01/15 20:51:05;;;;;;;0.77;0.57;;;8.10;57.60;;;;;;20787862;28;20280;-80
2021/01/15 21:01:08;;;;;;;0.82;0.47;;;8.10;57.50;;;;;;20778270;28;20400;-79
2021/01/15 21:11:10;;;;;;;0.77;0.77;;;8.10;57.40;;;;;;20771724;28;20033;-79
2021/01/15 21:21:23;;;;;;;1.63;0.60;;;8.10;57.40;;;;;;20789706;28;20365;-80
2021/01/15 21:31:28;;;;;;;1.50;0.47;;;8.10;57.30;;;;;;20757755;28;20040;-79
2021/01/15 21:41:38;;;;;;;0.73;0.30;;;8.10;57.20;;;;;;20788632;28;20073;-80
2021/01/15 21:51:50;;;;;;;0.45;0.32;;;8.10;57.20;;;;;;20773076;28;20468;-78
2021/01/15 22:01:50;;;;;;;2.67;1.10;;;8.10;57.20;;;;;;20768712;28;20037;-79
2021/01/15 22:11:53;;;;;;;1.70;0.93;;;8.00;57.10;;;;;;20750752;28;20408;-79
2021/01/15 22:22:06;;;;;;;2.78;1.05;;;8.00;57.10;;;;;;20759750;28;20300;-78
2021/01/15 22:32:18;;;;;;;1.00;0.57;;;8.10;57.10;;;;;;20766942;28;20444;-79
2021/01/15 22:42:24;;;;;;;1.42;0.70;;;8.00;57.00;;;;;;20769764;28;20087;-78
2021/01/15 22:52:43;;;;;;;0.32;0.20;;;8.00;57.00;;;;;;20783820;28;20387;-78
2021/01/15 23:02:49;;;;;;;0.30;0.25;;;8.00;57.00;;;;;;20794850;28;20369;-80
2021/01/15 23:12:51;;;;;;;0.25;0.25;;;8.00;56.90;;;;;;20747633;28;20033;-79
2021/01/15 23:22:53;;;;;;;1.00;0.65;;;8.00;56.90;;;;;;20779102;28;20053;-80
2021/01/15 23:33:01;;;;;;;1.17;0.47;;;8.00;56.80;;;;;;20749047;28;20038;-78
2021/01/15 23:43:14;;;;;;;0.25;0.25;;;8.00;56.80;;;;;;20767407;28;20029;-79
2021/01/15 23:53:38;;;;;;;0.95;0.50;;;8.00;57.40;;;;;;20769198;28;20052;-79
